createdAt,value
2022-12-28T00:01:49.128Z,90.02
2022-12-28T00:04:21.200Z,90.42
2022-12-28T00:06:53.150Z,90.43
2022-12-28T00:09:26.210Z,90.30
2022-12-28T00:11:57.938Z,90.90
2022-12-28T00:14:29.689Z,90.63
2022-12-28T00:17:01.540Z,90.15
2022-12-28T00:19:33.488Z,91.93
2022-12-28T00:22:05.362Z,92.84
2022-12-28T00:24:37.237Z,91.96
2022-12-28T00:27:08.972Z,91.11
2022-12-28T00:29:40.699Z,90.85
2022-12-28T00:32:12.538Z,91.44
2022-12-28T00:34:44.490Z,92.08
2022-12-28T00:37:16.185Z,91.92
2022-12-28T00:39:48.011Z,91.94
2022-12-28T00:42:22.041Z,92.48
2022-12-28T00:44:53.934Z,93.09
2022-12-28T00:47:25.642Z,93.33
2022-12-28T00:49:57.430Z,92.84
2022-12-28T00:52:29.216Z,92.47
2022-12-28T00:55:01.100Z,92.20
2022-12-28T00:57:33.805Z,91.71
2022-12-28T01:00:04.447Z,91.57
2022-12-28T01:02:36.448Z,92.78
2022-12-28T01:05:10.437Z,92.38
2022-12-28T01:07:42.167Z,91.48
2022-12-28T01:10:14.470Z,91.75
2022-12-28T01:12:46.155Z,91.23
2022-12-28T01:15:18.322Z,91.23
2022-12-28T01:17:50.202Z,90.70
2022-12-28T01:20:21.959Z,90.38
2022-12-28T01:22:53.691Z,90.30
2022-12-28T01:25:25.395Z,90.49
2022-12-28T01:27:57.343Z,91.00
2022-12-28T01:30:30.305Z,90.66
2022-12-28T01:33:03.484Z,90.85
2022-12-28T01:35:35.541Z,90.65
2022-12-28T01:38:07.247Z,90.59
2022-12-28T01:40:44.627Z,89.79
2022-12-28T01:43:29.757Z,89.87
2022-12-28T01:46:01.838Z,89.65
2022-12-28T01:48:36.901Z,89.54
2022-12-28T01:51:09.140Z,89.72
2022-12-28T01:53:41.302Z,89.71
2022-12-28T01:56:13.197Z,89.49
2022-12-28T01:58:45.709Z,89.45
2022-12-28T02:01:18.133Z,90.29
2022-12-28T02:03:50.294Z,91.00
2022-12-28T02:06:23.639Z,90.69
2022-12-28T02:09:00.024Z,90.73
2022-12-28T02:11:35.343Z,89.90
2022-12-28T02:14:08.612Z,89.48
2022-12-28T02:16:40.656Z,89.45
2022-12-28T02:19:19.905Z,89.82
2022-12-28T02:22:05.922Z,90.01
2022-12-28T02:25:11.660Z,90.47
2022-12-28T02:27:58.795Z,89.92
2022-12-28T02:30:34.482Z,89.86
2022-12-28T02:33:14.754Z,89.45
2022-12-28T02:35:55.986Z,89.54
2022-12-28T02:38:31.295Z,89.37
2022-12-28T02:41:07.929Z,89.09
2022-12-28T02:43:40.177Z,89.36
2022-12-28T02:46:37.703Z,89.48
2022-12-28T02:49:38.528Z,89.26
2022-12-28T02:52:23.967Z,89.05
2022-12-28T02:55:27.407Z,88.76
2022-12-28T02:58:12.354Z,88.57
2022-12-28T03:00:57.362Z,88.32
2022-12-28T03:03:38.334Z,88.24
2022-12-28T03:06:36.808Z,88.55
2022-12-28T03:09:18.139Z,88.69
2022-12-28T03:11:57.563Z,88.73
2022-12-28T03:14:36.162Z,88.40
2022-12-28T03:17:28.286Z,88.03
2022-12-28T03:20:25.389Z,89.22
2022-12-28T03:23:17.082Z,89.49
2022-12-28T03:26:07.877Z,89.80
2022-12-28T03:29:02.822Z,89.31
2022-12-28T03:31:36.006Z,89.91
2022-12-28T03:34:11.450Z,89.57
2022-12-28T03:36:54.637Z,89.24
2022-12-28T03:39:37.656Z,88.70
2022-12-28T03:42:35.533Z,88.68
2022-12-28T03:45:46.252Z,88.35
2022-12-28T03:48:12.591Z,87.98
2022-12-28T03:50:48.028Z,87.68
2022-12-28T03:53:25.851Z,87.53
2022-12-28T03:56:10.381Z,87.27
2022-12-28T03:58:40.706Z,87.10
2022-12-28T04:01:13.467Z,86.92
2022-12-28T04:03:45.493Z,86.74
2022-12-28T04:06:19.149Z,86.74
2022-12-28T04:08:51.240Z,86.53
2022-12-28T04:11:23.310Z,86.72
2022-12-28T04:13:57.344Z,86.72
2022-12-28T04:16:31.254Z,86.92
2022-12-28T04:19:03.736Z,86.47
2022-12-28T04:21:35.627Z,86.50
2022-12-28T04:24:07.963Z,86.45
2022-12-28T04:26:41.174Z,86.38
2022-12-28T04:29:13.457Z,86.62
2022-12-28T04:31:52.094Z,86.47
2022-12-28T04:34:25.262Z,86.36
2022-12-28T04:37:01.326Z,86.52
2022-12-28T04:39:55.064Z,86.31
2022-12-28T04:42:25.722Z,86.50
2022-12-28T04:44:57.432Z,86.51
2022-12-28T04:47:29.331Z,86.34
2022-12-28T04:50:01.640Z,86.30
2022-12-28T04:52:34.715Z,86.29
2022-12-28T04:55:07.230Z,86.12
2022-12-28T04:57:58.883Z,86.19
2022-12-28T05:00:30.653Z,86.04
2022-12-28T05:03:03.460Z,86.27
2022-12-28T05:05:37.790Z,86.95
2022-12-28T05:08:08.354Z,86.36
2022-12-28T05:10:40.289Z,86.22
2022-12-28T05:13:12.235Z,86.08
2022-12-28T05:15:43.980Z,85.84
2022-12-28T05:18:16.133Z,85.76
2022-12-28T05:20:47.836Z,85.62
2022-12-28T05:23:19.680Z,85.42
2022-12-28T05:25:56.868Z,85.24
2022-12-28T05:28:28.848Z,85.72
2022-12-28T05:31:04.277Z,85.60
2022-12-28T05:33:37.428Z,85.71
2022-12-28T05:36:11.651Z,85.85
2022-12-28T05:38:43.678Z,85.90
2022-12-28T05:41:18.281Z,85.59
2022-12-28T05:43:50.501Z,85.53
2022-12-28T05:46:25.089Z,85.40
2022-12-28T05:48:56.968Z,85.10
2022-12-28T05:51:30.564Z,84.99
2022-12-28T05:54:04.287Z,84.84
2022-12-28T05:56:36.225Z,84.87
2022-12-28T05:59:09.004Z,84.72
2022-12-28T06:01:42.685Z,84.63
2022-12-28T06:04:18.444Z,84.53
2022-12-28T06:06:51.069Z,84.49
2022-12-28T06:09:21.503Z,84.53
2022-12-28T06:11:53.312Z,84.50
2022-12-28T06:14:25.379Z,84.54
2022-12-28T06:16:57.343Z,84.83
2022-12-28T06:19:29.208Z,84.84
2022-12-28T06:22:01.047Z,84.82
2022-12-28T06:24:32.820Z,84.99
2022-12-28T06:27:04.519Z,85.07
2022-12-28T06:29:36.413Z,85.07
2022-12-28T06:32:08.327Z,84.99
2022-12-28T06:34:40.041Z,85.04
2022-12-28T06:37:11.824Z,85.12
2022-12-28T06:39:43.504Z,84.78
2022-12-28T06:42:15.370Z,84.74
2022-12-28T06:44:47.619Z,85.08
2022-12-28T06:47:19.899Z,84.97
2022-12-28T06:49:51.583Z,84.94
2022-12-28T06:52:23.346Z,84.83
2022-12-28T06:54:55.081Z,84.74
2022-12-28T06:57:26.911Z,84.81
2022-12-28T06:59:58.638Z,84.78
2022-12-28T07:02:30.493Z,84.72
2022-12-28T07:05:02.428Z,84.86
2022-12-28T07:07:34.237Z,84.68
2022-12-28T07:10:06.732Z,84.68
2022-12-28T07:12:38.637Z,84.47
2022-12-28T07:15:12.308Z,84.61
2022-12-28T07:17:44.074Z,84.42
2022-12-28T07:20:15.961Z,84.31
2022-12-28T07:22:47.733Z,84.28
2022-12-28T07:25:19.628Z,84.27
2022-12-28T07:27:51.347Z,84.15
2022-12-28T07:30:23.028Z,84.21
2022-12-28T07:32:55.013Z,83.98
2022-12-28T07:35:26.905Z,83.90
2022-12-28T07:37:58.596Z,83.83
2022-12-28T07:40:30.357Z,83.68
2022-12-28T07:43:03.347Z,83.54
2022-12-28T07:45:35.331Z,83.59
2022-12-28T07:48:07.382Z,83.68
2022-12-28T07:50:39.509Z,83.47
2022-12-28T07:53:11.206Z,83.34
2022-12-28T07:55:43.640Z,83.09
2022-12-28T07:58:15.380Z,82.87
2022-12-28T08:00:47.526Z,82.90
2022-12-28T08:03:19.332Z,82.88
2022-12-28T08:05:51.071Z,82.61
2022-12-28T08:08:22.748Z,82.60
2022-12-28T08:10:55.085Z,82.59
2022-12-28T08:13:26.846Z,82.66
2022-12-28T08:15:59.007Z,82.37
2022-12-28T08:18:31.832Z,82.33
2022-12-28T08:21:03.302Z,82.49
2022-12-28T08:23:35.340Z,82.13
2022-12-28T08:26:12.935Z,81.90
2022-12-28T08:28:46.361Z,81.62
2022-12-28T08:31:20.857Z,81.39
2022-12-28T08:33:53.752Z,81.49
2022-12-28T08:36:26.099Z,81.32
2022-12-28T08:38:58.917Z,81.21
2022-12-28T08:41:31.806Z,81.11
2022-12-28T08:44:04.681Z,81.27
2022-12-28T08:46:36.541Z,80.92
2022-12-28T08:49:08.398Z,80.59
2022-12-28T08:51:41.935Z,80.49
2022-12-28T08:54:15.034Z,80.17
2022-12-28T08:56:47.505Z,80.16
2022-12-28T08:59:20.876Z,80.39
2022-12-28T09:01:52.824Z,80.34
2022-12-28T09:04:25.187Z,80.29
2022-12-28T09:06:56.983Z,80.34
2022-12-28T09:09:29.268Z,80.01
2022-12-28T09:12:00.965Z,79.76
2022-12-28T09:14:33.116Z,79.90
2022-12-28T09:17:05.259Z,79.60
2022-12-28T09:19:37.041Z,79.50
2022-12-28T09:22:08.891Z,79.36
2022-12-28T09:24:40.589Z,79.21
2022-12-28T09:27:12.645Z,79.02
2022-12-28T09:29:45.154Z,78.71
2022-12-28T09:32:16.977Z,78.41
2022-12-28T09:34:48.818Z,78.15
2022-12-28T09:37:20.564Z,77.96
2022-12-28T09:39:54.579Z,77.83
2022-12-28T09:42:31.445Z,77.55
2022-12-28T09:45:06.344Z,77.35
2022-12-28T09:47:42.003Z,77.10
2022-12-28T09:50:32.401Z,77.43
2022-12-28T09:53:22.788Z,77.15
2022-12-28T09:56:01.925Z,77.33
2022-12-28T09:58:37.637Z,77.09
2022-12-28T10:01:15.560Z,76.86
2022-12-28T10:03:48.686Z,76.48
2022-12-28T10:06:25.274Z,76.30
2022-12-28T10:09:01.070Z,76.21
2022-12-28T10:11:40.427Z,76.67
2022-12-28T10:14:20.581Z,76.50
2022-12-28T10:16:52.743Z,76.71
2022-12-28T10:19:27.567Z,77.01
2022-12-28T10:22:02.902Z,77.89
2022-12-28T10:24:34.920Z,77.66
2022-12-28T10:27:08.643Z,77.28
2022-12-28T10:29:42.713Z,77.32
2022-12-28T10:32:14.416Z,77.50
2022-12-28T10:34:58.959Z,77.66
2022-12-28T10:37:35.990Z,77.54
2022-12-28T10:40:19.380Z,77.71
2022-12-28T10:42:55.107Z,77.72
2022-12-28T10:45:37.219Z,77.43
2022-12-28T10:48:16.491Z,77.04
2022-12-28T10:50:54.750Z,76.85
2022-12-28T10:53:33.115Z,77.40
2022-12-28T10:56:08.318Z,77.40
2022-12-28T10:58:41.284Z,77.10
2022-12-28T11:01:20.248Z,77.16
2022-12-28T11:04:05.364Z,76.75
2022-12-28T11:06:52.503Z,76.53
2022-12-28T11:09:27.190Z,76.50
2022-12-28T11:12:18.723Z,76.55
2022-12-28T11:14:52.396Z,76.82
2022-12-28T11:17:26.656Z,76.63
2022-12-28T11:20:04.558Z,76.56
2022-12-28T11:22:36.863Z,76.75
2022-12-28T11:25:10.143Z,76.31
2022-12-28T11:27:41.778Z,76.26
2022-12-28T11:30:18.249Z,76.46
2022-12-28T11:32:54.569Z,76.28
2022-12-28T11:35:30.659Z,75.90
2022-12-28T11:38:05.831Z,75.95
2022-12-28T11:40:56.702Z,76.09
2022-12-28T11:43:51.833Z,75.98
2022-12-28T11:46:56.935Z,76.12
2022-12-28T11:49:32.434Z,76.48
2022-12-28T11:52:44.503Z,76.31
2022-12-28T11:56:06.770Z,76.24
2022-12-28T11:58:48.192Z,76.23
2022-12-28T12:01:50.076Z,76.61
2022-12-28T12:04:42.962Z,76.89
2022-12-28T12:07:30.746Z,76.71
2022-12-28T12:10:31.667Z,76.57
2022-12-28T12:13:24.864Z,76.45
2022-12-28T12:16:00.223Z,76.71
2022-12-28T12:18:36.153Z,76.27
2022-12-28T12:21:15.430Z,76.16
2022-12-28T12:23:51.723Z,75.98
2022-12-28T12:26:28.659Z,75.96
2022-12-28T12:29:07.508Z,75.69
2022-12-28T12:31:44.336Z,75.68
2022-12-28T12:34:22.103Z,75.84
2022-12-28T12:37:11.349Z,75.56
2022-12-28T12:39:56.173Z,75.54
2022-12-28T12:42:38.678Z,75.63
2022-12-28T12:45:23.065Z,75.51
2022-12-28T12:48:11.381Z,75.48
2022-12-28T12:51:07.951Z,75.47
2022-12-28T12:53:52.557Z,75.64
2022-12-28T12:56:37.214Z,75.69
2022-12-28T12:59:26.973Z,75.62
2022-12-28T13:02:09.054Z,75.53
2022-12-28T13:04:43.167Z,75.93
2022-12-28T13:07:21.515Z,75.86
2022-12-28T13:09:55.767Z,75.74
2022-12-28T13:12:27.972Z,76.09
2022-12-28T13:15:05.980Z,75.99
2022-12-28T13:17:41.061Z,76.10
2022-12-28T13:20:21.822Z,75.82
2022-12-28T13:22:54.729Z,76.25
2022-12-28T13:25:32.564Z,76.06
2022-12-28T13:28:06.775Z,76.47
2022-12-28T13:30:40.763Z,76.75
2022-12-28T13:33:23.279Z,76.21
2022-12-28T13:36:11.790Z,75.83
2022-12-28T13:38:43.557Z,75.93
2022-12-28T13:41:24.898Z,75.89
2022-12-28T13:44:21.975Z,76.12
2022-12-28T13:46:57.618Z,76.21
2022-12-28T13:49:32.376Z,76.21
2022-12-28T13:52:07.175Z,76.89
2022-12-28T13:54:41.030Z,77.16
2022-12-28T14:00:11.556Z,78.15
2022-12-28T14:02:44.218Z,79.36
2022-12-28T14:05:18.582Z,79.43
2022-12-28T14:07:51.659Z,80.18
2022-12-28T14:10:24.283Z,80.74
2022-12-28T14:12:57.491Z,80.65
2022-12-28T14:15:29.579Z,80.55
2022-12-28T14:18:01.778Z,80.68
2022-12-28T14:20:33.980Z,80.82
2022-12-28T14:23:22.800Z,81.09
2022-12-28T14:25:56.178Z,80.73
2022-12-28T14:28:33.006Z,80.84
2022-12-28T14:31:07.392Z,80.83
2022-12-28T14:33:44.885Z,80.58
2022-12-28T14:36:23.891Z,80.62
2022-12-28T14:39:04.236Z,80.25
2022-12-28T14:41:42.043Z,80.20
2022-12-28T14:44:21.683Z,80.18
2022-12-28T14:46:54.417Z,79.98
2022-12-28T14:49:33.941Z,79.82
2022-12-28T14:52:37.682Z,80.02
2022-12-28T14:55:22.505Z,79.90
2022-12-28T14:57:59.150Z,80.22
2022-12-28T15:00:33.525Z,80.15
2022-12-28T15:03:18.917Z,79.87
2022-12-28T15:05:54.365Z,79.93
2022-12-28T15:08:28.221Z,80.02
2022-12-28T15:11:01.255Z,80.11
2022-12-28T15:13:32.983Z,80.17
2022-12-28T15:16:06.015Z,80.24
2022-12-28T15:18:45.067Z,80.55
2022-12-28T15:21:19.236Z,80.37
2022-12-28T15:23:52.804Z,80.22
2022-12-28T15:26:27.840Z,80.60
2022-12-28T15:28:59.598Z,80.73
2022-12-28T15:31:31.539Z,80.81
2022-12-28T15:34:03.807Z,81.14
2022-12-28T15:36:35.513Z,81.42
2022-12-28T15:39:07.470Z,81.48
2022-12-28T15:41:48.205Z,81.59
2022-12-28T15:44:21.733Z,81.92
2022-12-28T15:46:53.427Z,82.34
2022-12-28T15:49:25.185Z,82.77
2022-12-28T15:51:57.131Z,82.77
2022-12-28T15:54:28.890Z,83.36
2022-12-28T15:57:00.705Z,84.11
2022-12-28T15:59:32.569Z,84.29
2022-12-28T16:02:04.555Z,84.50
2022-12-28T16:04:36.925Z,84.71
2022-12-28T16:07:08.805Z,84.69
2022-12-28T16:09:40.621Z,85.10
2022-12-28T16:12:17.044Z,84.96
2022-12-28T16:14:49.571Z,85.23
2022-12-28T16:17:21.491Z,85.36
2022-12-28T16:19:53.271Z,85.17
2022-12-28T16:22:25.467Z,85.35
2022-12-28T16:24:57.434Z,85.42
2022-12-28T16:27:29.280Z,85.61
2022-12-28T16:30:01.069Z,85.58
2022-12-28T16:32:32.987Z,85.33
2022-12-28T16:35:05.554Z,85.00
2022-12-28T16:37:37.726Z,84.25
2022-12-28T16:40:12.038Z,83.64
2022-12-28T16:42:45.729Z,83.36
2022-12-28T16:45:18.484Z,83.17
2022-12-28T16:47:50.298Z,82.87
2022-12-28T16:50:22.006Z,82.76
2022-12-28T16:52:54.081Z,82.29
2022-12-28T16:55:25.854Z,81.98
2022-12-28T16:57:57.659Z,81.71
2022-12-28T17:00:29.451Z,81.89
2022-12-28T17:03:01.420Z,81.75
2022-12-28T17:05:36.415Z,82.05
2022-12-28T17:08:08.791Z,82.22
2022-12-28T17:10:43.628Z,82.03
2022-12-28T17:13:16.259Z,81.93
2022-12-28T17:15:49.135Z,81.68
2022-12-28T17:18:19.330Z,81.81
2022-12-28T17:20:51.479Z,81.95
2022-12-28T17:23:23.656Z,81.81
2022-12-28T17:25:57.106Z,82.28
2022-12-28T17:28:29.397Z,82.40
2022-12-28T17:31:09.151Z,82.12
2022-12-28T17:33:44.723Z,82.50
2022-12-28T17:36:17.170Z,82.58
2022-12-28T17:38:49.078Z,82.58
2022-12-28T17:41:23.303Z,82.49
2022-12-28T17:43:57.106Z,82.45
2022-12-28T17:46:31.009Z,82.50
2022-12-28T17:49:02.974Z,82.98
2022-12-28T17:51:36.498Z,83.09
2022-12-28T17:54:11.858Z,83.33
2022-12-28T17:56:45.429Z,83.52
2022-12-28T17:59:18.294Z,83.39
2022-12-28T18:01:48.675Z,83.20
2022-12-28T18:04:20.462Z,83.32
2022-12-28T18:06:52.462Z,83.16
2022-12-28T18:09:27.863Z,83.24
2022-12-28T18:12:00.349Z,83.24
2022-12-28T18:14:32.502Z,83.12
2022-12-28T18:17:04.311Z,83.14
2022-12-28T18:19:36.077Z,82.89
2022-12-28T18:22:07.994Z,83.11
2022-12-28T18:24:39.693Z,82.75
2022-12-28T18:27:11.499Z,82.29
2022-12-28T18:29:44.706Z,81.70
2022-12-28T18:32:16.501Z,82.07
2022-12-28T18:34:48.751Z,81.92
2022-12-28T18:37:20.984Z,81.82
2022-12-28T18:39:52.768Z,81.89
2022-12-28T18:42:25.412Z,81.37
2022-12-28T18:44:58.113Z,81.50
2022-12-28T18:47:32.762Z,81.26
2022-12-28T18:50:04.921Z,81.09
2022-12-28T18:52:36.697Z,81.16
2022-12-28T18:55:09.940Z,81.08
2022-12-28T18:57:41.747Z,80.87
2022-12-28T19:00:15.704Z,81.06
2022-12-28T19:02:51.290Z,81.15
2022-12-28T19:05:23.333Z,80.88
2022-12-28T19:07:55.394Z,80.74
2022-12-28T19:10:27.285Z,80.41
2022-12-28T19:12:59.020Z,80.64
2022-12-28T19:15:31.061Z,80.89
2022-12-28T19:18:02.925Z,80.80
2022-12-28T19:20:34.757Z,81.01
2022-12-28T19:23:06.435Z,81.41
2022-12-28T19:25:39.073Z,81.54
2022-12-28T19:28:10.835Z,81.10
2022-12-28T19:30:42.798Z,81.14
2022-12-28T19:33:14.600Z,81.04
2022-12-28T19:35:46.645Z,80.96
2022-12-28T19:38:19.150Z,80.90
2022-12-28T19:40:51.056Z,80.96
2022-12-28T19:43:23.019Z,80.72
2022-12-28T19:46:01.986Z,81.31
2022-12-28T19:48:33.938Z,81.35
2022-12-28T19:51:06.146Z,80.88
2022-12-28T19:53:38.320Z,80.64
2022-12-28T19:56:12.730Z,80.63
2022-12-28T19:58:45.563Z,80.92
2022-12-28T20:01:19.690Z,80.93
2022-12-28T20:03:53.505Z,80.53
2022-12-28T20:06:27.616Z,80.15
2022-12-28T20:09:01.630Z,80.06
2022-12-28T20:11:34.133Z,80.17
2022-12-28T20:14:07.311Z,80.01
2022-12-28T20:16:39.369Z,79.64
2022-12-28T20:19:12.979Z,79.66
2022-12-28T20:21:45.232Z,79.64
2022-12-28T20:24:17.873Z,79.67
2022-12-28T20:26:50.239Z,79.70
2022-12-28T20:29:22.342Z,79.62
2022-12-28T20:31:54.728Z,79.41
2022-12-28T20:34:27.519Z,79.42
2022-12-28T20:36:59.343Z,79.32
2022-12-28T20:39:31.511Z,79.52
2022-12-28T20:42:21.214Z,79.67
2022-12-28T20:44:53.574Z,79.64
2022-12-28T20:47:25.557Z,79.48
2022-12-28T20:49:57.813Z,79.21
2022-12-28T20:52:29.724Z,79.22
2022-12-28T20:55:01.806Z,79.90
2022-12-28T20:57:33.833Z,79.82
2022-12-28T21:00:06.889Z,79.71
2022-12-28T21:02:38.775Z,79.63
2022-12-28T21:05:12.173Z,79.43
2022-12-28T21:07:44.330Z,79.50
2022-12-28T21:10:17.053Z,79.25
2022-12-28T21:12:49.247Z,79.37
2022-12-28T21:15:21.164Z,79.31
2022-12-28T21:17:53.231Z,79.33
2022-12-28T21:20:26.796Z,79.23
2022-12-28T21:22:58.789Z,79.36
2022-12-28T21:25:33.589Z,79.46
2022-12-28T21:28:06.245Z,79.29
2022-12-28T21:30:38.070Z,79.57
2022-12-28T21:33:10.897Z,79.60
2022-12-28T21:35:42.866Z,79.33
2022-12-28T21:38:14.676Z,79.05
2022-12-28T21:40:46.721Z,78.89
2022-12-28T21:43:18.391Z,78.78
2022-12-28T21:46:01.904Z,78.60
2022-12-28T21:48:35.300Z,78.65
2022-12-28T21:51:29.214Z,78.77
2022-12-28T21:54:03.345Z,78.57
2022-12-28T21:56:36.423Z,78.57
2022-12-28T21:59:09.163Z,78.91
2022-12-28T22:02:00.101Z,78.84
2022-12-28T22:04:50.191Z,78.74
2022-12-28T22:07:23.290Z,78.78
2022-12-28T22:10:18.073Z,79.34
2022-12-28T22:12:50.338Z,80.13
2022-12-28T22:15:42.124Z,81.10
2022-12-28T22:18:52.645Z,81.42
2022-12-28T22:21:13.555Z,83.10
2022-12-28T22:23:45.425Z,99.86
2022-12-28T22:26:17.075Z,100.00
2022-12-28T22:28:48.783Z,100.00
2022-12-28T22:31:20.521Z,97.14
2022-12-28T22:33:53.455Z,86.71
2022-12-28T22:36:25.240Z,84.47
2022-12-28T22:38:57.118Z,83.92
2022-12-28T22:41:28.856Z,84.00
2022-12-28T22:44:01.002Z,84.68
2022-12-28T22:46:32.792Z,85.19
2022-12-28T22:49:04.694Z,85.34
2022-12-28T22:51:36.457Z,86.05
2022-12-28T22:54:08.313Z,87.92
2022-12-28T22:56:39.962Z,87.63
2022-12-28T22:59:15.399Z,88.44
2022-12-28T23:01:48.265Z,88.11
2022-12-28T23:04:20.555Z,87.80
2022-12-28T23:06:52.401Z,87.56
2022-12-28T23:09:24.315Z,87.91
2022-12-28T23:11:56.384Z,87.41
2022-12-28T23:14:46.899Z,87.03
2022-12-28T23:17:19.112Z,86.54
2022-12-28T23:20:08.537Z,86.53
2022-12-28T23:23:06.658Z,86.54
2022-12-28T23:25:59.413Z,86.18
2022-12-28T23:28:31.397Z,86.01
2022-12-28T23:31:03.732Z,85.99
2022-12-28T23:33:34.464Z,86.18
2022-12-28T23:36:07.621Z,85.89
2022-12-28T23:38:39.463Z,85.84
2022-12-28T23:41:29.245Z,85.84
2022-12-28T23:44:01.434Z,85.95
2022-12-28T23:46:33.661Z,85.85
2022-12-28T23:49:05.499Z,86.24
2022-12-28T23:51:37.885Z,86.15
2022-12-28T23:54:11.147Z,86.20
2022-12-28T23:56:47.403Z,86.30
2022-12-28T23:59:20.411Z,86.11
